Time;durP1;ratioP1;P1;durP2;ratioP2;P2;SDS_P1;SDS_P2;PMS_P1;PMS_P2;Temp;Humidity;BMP_temperature;BMP_pressure;BME280_temperature;BME280_humidity;BME280_pressure;Samples;Min_cycle;Max_cycle;Signal;HPM_P1;HPM_P2
2021/08/13 00:01:58;;;;;;;6.00;5.53;;;;;;;17.57;80.99;101459.78;4434938;32;20505;-65
2021/08/13 00:04:23;;;;;;;5.65;5.35;;;;;;;17.42;81.71;101454.59;4423943;32;20416;-65
2021/08/13 00:06:50;;;;;;;5.50;5.20;;;;;;;17.39;82.26;101467.22;4413704;32;20087;-65
2021/08/13 00:09:16;;;;;;;8.07;5.50;;;;;;;17.33;82.68;101457.84;4410223;32;20077;-66
2021/08/13 00:11:41;;;;;;;6.87;6.28;;;;;;;17.35;82.09;101467.41;4424321;32;20172;-65
2021/08/13 00:14:07;;;;;;;5.25;5.05;;;;;;;17.29;82.23;101473.13;4410154;32;20078;-65
2021/08/13 00:16:32;;;;;;;5.72;5.43;;;;;;;17.32;83.01;101477.41;4437828;32;20163;-66
2021/08/13 00:18:57;;;;;;;6.12;5.82;;;;;;;17.17;84.47;101476.63;4409005;32;20072;-65
2021/08/13 00:21:23;;;;;;;5.97;5.68;;;;;;;17.15;84.68;101481.19;4435856;32;20123;-66
2021/08/13 00:23:48;;;;;;;6.50;6.10;;;;;;;17.17;84.47;101489.03;4414073;32;20083;-65
2021/08/13 00:26:14;;;;;;;5.70;5.40;;;;;;;17.14;83.53;101484.81;4436180;32;20115;-66
2021/08/13 00:28:39;;;;;;;5.90;5.50;;;;;;;16.10;82.49;101315.00;4421412;32;20071;-66
2021/08/13 00:31:04;;;;;;;6.00;5.53;;;;;;;16.70;83.01;101417.84;4406839;32;20815;-66
2021/08/13 00:33:30;;;;;;;5.40;5.05;;;;;;;17.05;82.69;101483.59;4411601;32;20778;-66
2021/08/13 00:35:55;;;;;;;6.35;5.95;;;;;;;17.06;82.98;101487.09;4405808;32;20091;-66
2021/08/13 00:38:20;;;;;;;6.12;5.72;;;;;;;17.12;83.54;101481.41;4420902;32;20071;-66
2021/08/13 00:40:47;;;;;;;7.60;6.97;;;;;;;17.20;83.77;101489.69;4421312;32;20071;-66
2021/08/13 00:43:12;;;;;;;5.70;5.40;;;;;;;17.30;83.50;101493.41;4414537;32;20622;-66
2021/08/13 00:45:37;;;;;;;6.65;6.30;;;;;;;17.38;83.30;101500.00;4421063;32;20076;-66
2021/08/13 00:48:03;;;;;;;5.65;5.40;;;;;;;17.35;82.72;101493.94;4411684;32;20068;-65
2021/08/13 00:50:28;;;;;;;6.00;5.70;;;;;;;17.37;83.19;101499.16;4411991;32;20187;-66
2021/08/13 00:52:54;;;;;;;6.82;6.47;;;;;;;17.40;82.11;101500.72;4421921;32;20056;-65
2021/08/13 00:55:19;;;;;;;5.43;5.12;;;;;;;17.33;82.71;101495.00;4411367;32;20099;-66
2021/08/13 00:57:45;;;;;;;7.93;7.53;;;;;;;17.34;82.17;101513.47;4423885;32;20141;-66
2021/08/13 01:00:11;;;;;;;5.35;5.10;;;;;;;17.31;82.45;101495.09;4420365;32;20194;-66
2021/08/13 01:02:36;;;;;;;5.32;5.10;;;;;;;17.23;81.78;101491.28;4424838;32;20072;-67
2021/08/13 01:05:01;;;;;;;6.05;5.75;;;;;;;17.09;82.95;101487.75;4409406;32;20086;-66
2021/08/13 01:07:27;;;;;;;7.62;5.85;;;;;;;17.05;83.40;101482.75;4412239;32;20281;-66
2021/08/13 01:09:52;;;;;;;7.87;7.28;;;;;;;17.04;83.85;101476.63;4432631;32;20068;-66
2021/08/13 01:12:38;;;;;;;5.95;5.65;;;;;;;17.04;83.04;101481.03;4411817;32;20682;-66
2021/08/13 01:15:06;;;;;;;6.20;5.90;;;;;;;17.01;84.58;101475.97;4419410;32;20080;-66
2021/08/13 01:17:34;;;;;;;5.80;5.50;;;;;;;16.92;84.39;101458.88;4413366;32;20088;-66
2021/08/13 01:20:11;;;;;;;5.72;5.43;;;;;;;17.00;84.70;101474.25;4409073;32;20079;-66
2021/08/13 01:22:49;;;;;;;5.70;5.40;;;;;;;16.88;84.64;101463.53;4410757;32;20064;-67
2021/08/13 01:25:17;;;;;;;6.15;5.75;;;;;;;17.03;85.16;101477.56;4421024;32;20533;-67
2021/08/13 01:27:45;;;;;;;6.57;6.28;;;;;;;17.05;84.71;101480.09;4410809;32;20080;-66
2021/08/13 01:30:12;;;;;;;5.70;5.40;;;;;;;17.07;84.80;101484.34;4421638;32;20068;-65
2021/08/13 01:33:03;;;;;;;5.87;5.53;;;;;;;17.08;84.56;101485.22;4414018;32;20585;-66
2021/08/13 01:35:34;;;;;;;5.55;5.32;;;;;;;17.08;85.00;101482.56;4420517;32;20118;-66
2021/08/13 01:38:04;;;;;;;5.95;5.57;;;;;;;16.98;84.21;101484.09;4409258;32;20930;-66
2021/08/13 01:40:29;;;;;;;6.28;5.78;;;;;;;16.95;84.09;101483.34;4414497;32;20163;-66
2021/08/13 01:42:55;;;;;;;6.50;6.10;;;;;;;16.92;84.06;101483.59;4407819;32;20083;-66
2021/08/13 01:45:22;;;;;;;6.00;5.55;;;;;;;16.88;84.90;101473.28;4415926;32;20088;-66
2021/08/13 01:47:49;;;;;;;7.60;7.10;;;;;;;16.93;84.48;101476.47;4422912;32;20096;-66
2021/08/13 01:50:15;;;;;;;6.22;5.80;;;;;;;16.93;84.41;101469.34;4415787;32;21488;-67
2021/08/13 01:52:40;;;;;;;5.20;5.00;;;;;;;16.95;85.10;101477.22;4423390;32;20080;-67
2021/08/13 01:55:06;;;;;;;5.68;5.37;;;;;;;16.94;84.58;101479.03;4413582;32;20161;-68
2021/08/13 01:57:31;;;;;;;5.53;5.22;;;;;;;16.95;84.95;101483.34;4425629;32;20105;-67
2021/08/13 01:59:57;;;;;;;5.93;5.62;;;;;;;16.96;85.30;101476.28;4410329;32;20767;-66
2021/08/13 02:02:22;;;;;;;6.28;5.82;;;;;;;16.93;84.94;101484.41;4414815;32;20115;-67
2021/08/13 02:04:48;;;;;;;7.00;6.70;;;;;;;16.89;85.38;101485.56;4411208;32;20570;-67
2021/08/13 02:07:13;;;;;;;5.70;5.40;;;;;;;16.87;85.08;101495.44;4422379;32;20082;-67
2021/08/13 02:09:39;;;;;;;6.62;6.30;;;;;;;16.89;84.81;101514.75;4422695;32;20875;-67
2021/08/13 02:12:04;;;;;;;5.82;5.53;;;;;;;16.86;84.82;101499.91;4427397;32;21408;-67
2021/08/13 02:14:30;;;;;;;6.00;5.50;;;;;;;16.83;85.97;101492.13;4422124;32;20586;-67
2021/08/13 02:16:55;;;;;;;7.95;6.37;;;;;;;16.83;85.66;101486.00;4418270;32;20077;-67
2021/08/13 02:19:35;;;;;;;5.55;5.25;;;;;;;16.84;85.65;101488.53;4427887;32;20313;-67
2021/08/13 02:22:01;;;;;;;5.47;5.28;;;;;;;16.85;85.79;101484.09;4426397;32;21053;-67
2021/08/13 02:24:26;;;;;;;5.50;5.15;;;;;;;16.80;85.58;101483.50;4427116;32;20064;-67
2021/08/13 02:26:52;;;;;;;7.62;7.12;;;;;;;16.80;86.36;101486.12;4414328;32;20078;-67
2021/08/13 02:29:17;;;;;;;5.60;5.30;;;;;;;16.74;86.50;101480.31;4416320;32;20129;-67
2021/08/13 02:31:42;;;;;;;5.62;5.32;;;;;;;16.61;87.38;101481.22;4423587;32;20072;-67
2021/08/13 02:34:08;;;;;;;5.57;5.28;;;;;;;16.53;87.93;101487.84;4430911;32;20072;-67
2021/08/13 02:36:46;;;;;;;5.30;5.10;;;;;;;16.46;87.56;101483.06;4421488;32;20088;-67
2021/08/13 02:39:17;;;;;;;5.55;5.30;;;;;;;16.37;87.20;101483.66;4423576;32;20536;-67
2021/08/13 02:41:43;;;;;;;7.10;6.70;;;;;;;16.34;87.58;101484.69;4421657;32;20068;-66
2021/08/13 02:44:08;;;;;;;5.20;5.00;;;;;;;16.29;86.46;101476.19;4437575;32;20132;-66
2021/08/13 02:46:36;;;;;;;6.35;6.03;;;;;;;16.25;87.08;101469.38;4414563;32;20083;-67
2021/08/13 02:49:01;;;;;;;5.55;5.35;;;;;;;16.23;86.78;101466.81;4432559;32;20099;-67
2021/08/13 02:51:28;;;;;;;6.30;5.93;;;;;;;16.23;87.56;101458.88;4437226;32;20163;-66
2021/08/13 02:53:53;;;;;;;7.18;6.78;;;;;;;16.25;87.09;101464.94;4423649;32;20175;-66
2021/08/13 02:56:19;;;;;;;5.53;5.22;;;;;;;16.29;87.19;101474.37;4421459;32;20084;-67
2021/08/13 02:58:52;;;;;;;5.40;5.20;;;;;;;16.31;87.54;101474.28;4405626;32;20087;-66
2021/08/13 03:01:26;;;;;;;6.30;5.40;;;;;;;16.26;89.08;101469.28;4421220;32;20076;-66
2021/08/13 03:03:54;;;;;;;8.02;7.45;;;;;;;16.34;87.95;101471.47;4430332;32;20088;-66
2021/08/13 03:06:20;;;;;;;5.53;5.22;;;;;;;16.32;88.35;101476.84;4419751;32;20079;-67
2021/08/13 03:08:46;;;;;;;5.72;5.32;;;;;;;16.34;87.88;101468.81;4413422;32;20095;-67
2021/08/13 03:11:11;;;;;;;5.82;5.50;;;;;;;16.33;88.59;101464.44;4419276;32;20444;-67
2021/08/13 03:13:37;;;;;;;8.20;5.57;;;;;;;16.33;88.01;101470.59;4420528;32;20060;-68
2021/08/13 03:16:02;;;;;;;5.00;4.80;;;;;;;16.31;87.84;101464.53;4424657;32;20897;-67
2021/08/13 03:18:28;;;;;;;5.37;5.15;;;;;;;16.31;88.56;101459.22;4426998;32;20094;-67
2021/08/13 03:20:53;;;;;;;7.90;7.40;;;;;;;16.29;89.34;101457.66;4411493;32;20616;-67
2021/08/13 03:23:18;;;;;;;5.32;5.03;;;;;;;16.30;89.28;101454.91;4426759;32;20065;-67
2021/08/13 03:25:44;;;;;;;7.70;7.30;;;;;;;16.27;89.01;101457.72;4421875;32;20296;-66
2021/08/13 03:28:10;;;;;;;6.78;6.25;;;;;;;16.31;89.94;101456.59;4413404;32;20509;-67
2021/08/13 03:30:42;;;;;;;5.70;5.40;;;;;;;16.41;89.83;101453.34;4425899;32;20084;-67
2021/08/13 03:33:09;;;;;;;5.30;5.00;;;;;;;16.44;90.50;101453.16;4412065;32;20191;-67
2021/08/13 03:35:34;;;;;;;4.97;4.78;;;;;;;16.44;90.81;101461.97;4424839;32;20486;-67
2021/08/13 03:38:00;;;;;;;5.40;5.20;;;;;;;16.42;91.01;101466.50;4422288;32;20083;-67
2021/08/13 03:40:25;;;;;;;5.65;5.35;;;;;;;16.41;91.21;101475.41;4413132;32;20072;-66
2021/08/13 03:42:51;;;;;;;6.72;6.43;;;;;;;16.40;90.29;101465.75;4422132;32;20061;-67
2021/08/13 03:45:16;;;;;;;5.68;5.37;;;;;;;16.41;90.79;101470.09;4415294;32;20219;-67
2021/08/13 03:47:41;;;;;;;5.60;5.20;;;;;;;16.13;91.13;101410.94;4413138;32;20607;-67
2021/08/13 03:50:07;;;;;;;5.62;5.32;;;;;;;16.42;90.83;101463.03;4435019;32;20091;-67
2021/08/13 03:52:32;;;;;;;5.47;5.18;;;;;;;16.41;91.62;101462.16;4426029;32;20087;-67
2021/08/13 03:54:58;;;;;;;5.47;5.18;;;;;;;16.40;91.87;101460.47;4426198;32;20081;-67
2021/08/13 03:57:23;;;;;;;5.18;4.95;;;;;;;16.43;91.94;101464.69;4422038;32;20617;-67
2021/08/13 03:59:48;;;;;;;5.47;5.18;;;;;;;16.43;92.07;101462.06;4413956;32;20177;-67
2021/08/13 04:02:14;;;;;;;5.47;5.20;;;;;;;16.45;91.70;101455.69;4424767;32;20072;-67
2021/08/13 04:04:39;;;;;;;5.87;5.60;;;;;;;16.49;92.33;101464.31;4418811;32;20491;-67
2021/08/13 04:07:05;;;;;;;5.20;5.00;;;;;;;16.53;91.96;101468.44;4395779;32;20068;-66
2021/08/13 04:09:30;;;;;;;5.28;5.05;;;;;;;16.59;91.25;101477.81;4397334;32;20087;-66
2021/08/13 04:11:55;;;;;;;6.12;5.72;;;;;;;16.55;91.84;101478.00;4404877;32;20103;-66
2021/08/13 04:14:21;;;;;;;5.55;5.25;;;;;;;16.54;92.13;101480.78;4405404;32;20093;-66
2021/08/13 04:16:46;;;;;;;7.15;6.75;;;;;;;16.34;92.33;101437.84;4394448;32;20649;-66
2021/08/13 04:19:11;;;;;;;5.60;5.30;;;;;;;16.55;91.49;101477.16;4407741;32;20068;-66
2021/08/13 04:21:37;;;;;;;5.60;5.30;;;;;;;16.58;92.34;101476.97;4395820;32;20138;-66
2021/08/13 04:24:03;;;;;;;5.62;5.32;;;;;;;16.60;91.91;101482.16;4408148;32;20975;-66
2021/08/13 04:26:28;;;;;;;5.47;5.20;;;;;;;16.60;91.49;101479.50;4397280;32;20072;-67
2021/08/13 04:28:53;;;;;;;7.35;6.85;;;;;;;16.65;91.40;101486.19;4401437;32;20086;-66
2021/08/13 04:31:19;;;;;;;5.70;5.40;;;;;;;16.68;92.79;101495.78;4405320;32;20061;-65
2021/08/13 04:33:44;;;;;;;6.85;6.45;;;;;;;16.78;92.21;101496.88;4400367;32;20205;-65
2021/08/13 04:36:10;;;;;;;5.20;4.90;;;;;;;16.88;91.63;101502.44;4393151;32;20064;-67
2021/08/13 04:38:35;;;;;;;6.05;5.65;;;;;;;17.01;90.75;101489.22;4407323;32;20064;-66
2021/08/13 04:41:00;;;;;;;5.35;5.05;;;;;;;16.97;89.65;101504.47;4397468;32;20679;-68
2021/08/13 04:43:26;;;;;;;5.40;5.10;;;;;;;16.93;89.82;101505.63;4410613;32;20079;-67
2021/08/13 04:45:51;;;;;;;7.12;6.82;;;;;;;17.00;89.73;101491.03;4401050;32;20080;-66
2021/08/13 04:48:16;;;;;;;5.62;5.25;;;;;;;17.05;89.97;101491.56;4407024;32;20320;-67
2021/08/13 04:50:42;;;;;;;7.65;7.25;;;;;;;17.04;89.86;101483.69;4407241;32;20080;-64
2021/08/13 04:53:07;;;;;;;5.28;4.97;;;;;;;17.01;89.68;101484.75;4402935;32;21425;-67
2021/08/13 04:55:32;;;;;;;5.18;4.97;;;;;;;17.01;90.54;101471.50;4395343;32;20780;-65
2021/08/13 04:57:58;;;;;;;5.70;5.20;;;;;;;17.31;90.32;101475.69;4408014;32;20131;-65
2021/08/13 05:00:23;;;;;;;5.75;5.45;;;;;;;17.70;88.45;101469.44;4396512;32;20871;-65
2021/08/13 05:02:48;;;;;;;6.93;6.62;;;;;;;17.99;87.26;101452.44;4406093;32;20087;-65
2021/08/13 05:05:14;;;;;;;5.40;5.10;;;;;;;18.53;85.31;101468.84;4419083;32;20096;-65
2021/08/13 05:07:39;;;;;;;5.95;5.57;;;;;;;19.01;83.99;101475.13;4408173;32;20114;-65
2021/08/13 05:10:07;;;;;;;6.68;6.28;;;;;;;19.39;80.99;101477.50;4434093;32;20100;-66
2021/08/13 05:12:33;;;;;;;5.82;5.53;;;;;;;19.71;79.10;101472.38;4399801;32;20103;-67
2021/08/13 05:14:59;;;;;;;6.10;5.80;;;;;;;20.16;78.47;101468.00;4407224;32;20069;-65
2021/08/13 05:17:24;;;;;;;7.80;5.72;;;;;;;20.07;75.24;101480.25;4392135;32;20107;-65
2021/08/13 05:19:49;;;;;;;5.60;5.30;;;;;;;20.31;75.59;101477.41;4408301;32;20087;-65
2021/08/13 05:22:15;;;;;;;6.75;6.25;;;;;;;20.85;75.16;101483.72;4408666;32;20496;-66
2021/08/13 05:24:40;;;;;;;7.12;6.72;;;;;;;21.20;73.05;101487.91;4403770;32;20083;-65
2021/08/13 05:27:05;;;;;;;6.10;5.80;;;;;;;21.46;72.19;101491.03;4390252;32;20880;-65
2021/08/13 05:29:31;;;;;;;7.00;6.60;;;;;;;21.56;69.91;101496.44;4406101;32;20065;-66
2021/08/13 05:31:56;;;;;;;6.47;6.00;;;;;;;21.39;70.06;101497.84;4411062;32;20138;-65
2021/08/13 05:34:21;;;;;;;6.32;6.00;;;;;;;20.99;71.19;101496.75;4406105;32;20091;-65
2021/08/13 05:36:47;;;;;;;8.30;7.70;;;;;;;20.84;72.65;101504.19;4374300;32;20131;-63
2021/08/13 05:39:12;;;;;;;6.55;6.15;;;;;;;20.34;73.39;101490.47;4413222;32;20775;-65
2021/08/13 05:41:37;;;;;;;6.47;6.15;;;;;;;20.36;74.39;101501.03;4407119;32;20091;-65
2021/08/13 05:44:03;;;;;;;6.10;5.80;;;;;;;19.98;75.53;101503.12;4405985;32;20131;-65
2021/08/13 05:46:28;;;;;;;6.85;6.37;;;;;;;20.19;75.70;101495.25;4395821;32;20110;-66
2021/08/13 05:48:54;;;;;;;7.68;7.28;;;;;;;20.69;74.83;101498.31;4411080;32;20430;-66
2021/08/13 05:51:20;;;;;;;6.15;5.85;;;;;;;21.08;73.36;101501.28;4408756;32;20601;-66
2021/08/13 05:53:45;;;;;;;7.65;7.15;;;;;;;21.20;72.99;101490.56;4391122;32;20084;-66
2021/08/13 05:56:10;;;;;;;6.28;5.97;;;;;;;21.38;71.67;101497.00;4408987;32;20582;-65
2021/08/13 05:58:36;;;;;;;6.43;5.90;;;;;;;21.68;71.01;101500.72;4415142;32;20076;-65
2021/08/13 06:01:02;;;;;;;6.57;6.10;;;;;;;22.07;69.70;101498.19;4402032;32;20068;-66
2021/08/13 06:03:27;;;;;;;6.85;6.45;;;;;;;21.93;67.57;101472.72;4412982;32;20556;-66
2021/08/13 06:05:53;;;;;;;6.78;6.37;;;;;;;21.94;68.25;101524.34;4420290;32;20161;-65
2021/08/13 06:08:18;;;;;;;6.45;6.10;;;;;;;22.04;68.68;101536.75;4419386;32;20913;-65
2021/08/13 06:10:44;;;;;;;6.40;6.03;;;;;;;21.61;68.61;101471.03;4428010;32;20544;-66
2021/08/13 06:13:09;;;;;;;7.90;7.40;;;;;;;21.86;68.95;101528.50;4432908;32;20188;-65
2021/08/13 06:15:34;;;;;;;6.70;6.10;;;;;;;21.54;68.89;101503.75;4421081;32;20158;-72
2021/08/13 06:18:00;;;;;;;6.50;6.10;;;;;;;21.54;69.00;101509.09;4439599;32;20099;-74
2021/08/13 06:20:25;;;;;;;6.72;6.40;;;;;;;21.79;69.40;101539.88;4425687;32;20084;-73
2021/08/13 06:22:50;;;;;;;6.20;5.90;;;;;;;21.51;69.17;101531.56;4437973;32;20088;-74
2021/08/13 06:25:16;;;;;;;6.40;6.00;;;;;;;21.12;70.54;101510.72;4426161;32;20076;-74
2021/08/13 06:27:42;;;;;;;5.55;5.25;;;;;;;21.32;70.48;101551.78;4438240;32;20092;-73
2021/08/13 06:30:10;;;;;;;5.95;5.65;;;;;;;21.19;70.72;101558.25;4421623;32;20077;-73
2021/08/13 06:32:35;;;;;;;7.18;6.72;;;;;;;21.39;70.38;101551.25;4436313;32;20149;-72
2021/08/13 06:35:00;;;;;;;6.62;6.22;;;;;;;21.33;69.84;101555.31;4426202;32;20697;-72
2021/08/13 06:37:26;;;;;;;6.20;5.80;;;;;;;21.27;70.32;101535.31;4438235;32;20111;-72
2021/08/13 06:39:51;;;;;;;7.18;6.68;;;;;;;21.39;70.15;101540.56;4414356;32;20072;-72
2021/08/13 06:42:16;;;;;;;6.75;6.15;;;;;;;21.40;70.27;101524.44;4427237;32;20169;-72
2021/08/13 06:44:42;;;;;;;7.50;6.80;;;;;;;21.83;69.58;101568.87;4428539;32;20079;-71
2021/08/13 06:47:07;;;;;;;7.55;7.05;;;;;;;22.01;68.93;101565.56;4417997;32;20072;-72
2021/08/13 06:49:33;;;;;;;6.87;6.43;;;;;;;21.95;69.40;101550.06;4429473;32;20090;-72
2021/08/13 06:51:58;;;;;;;6.22;5.87;;;;;;;22.04;68.56;101557.28;4429275;32;20087;-71
2021/08/13 06:54:23;;;;;;;6.90;6.32;;;;;;;21.94;68.41;101559.09;4427151;32;20645;-71
2021/08/13 06:56:49;;;;;;;6.43;6.03;;;;;;;22.00;69.12;101562.06;4421915;32;20083;-71
2021/08/13 06:59:14;;;;;;;6.47;6.00;;;;;;;22.06;68.27;101561.53;4419531;32;20091;-71
2021/08/13 07:01:39;;;;;;;6.82;6.30;;;;;;;21.94;67.72;101521.66;4418290;32;20084;-74
2021/08/13 07:04:05;;;;;;;6.82;6.32;;;;;;;21.96;67.43;101509.84;4425860;32;20144;-73
2021/08/13 07:06:30;;;;;;;7.80;7.00;;;;;;;21.93;67.28;101536.88;4419358;32;20081;-74
2021/08/13 07:08:55;;;;;;;7.82;7.18;;;;;;;21.55;67.20;101524.13;4420579;32;20072;-74
2021/08/13 07:11:21;;;;;;;7.50;6.90;;;;;;;21.80;66.88;101552.25;4416695;32;20072;-74
2021/08/13 07:13:46;;;;;;;7.05;6.53;;;;;;;21.19;66.89;101439.00;4429564;32;20082;-74
2021/08/13 07:16:11;;;;;;;7.53;7.03;;;;;;;22.12;66.27;101573.50;4412475;32;20073;-69
2021/08/13 07:18:37;;;;;;;6.57;6.18;;;;;;;21.69;67.00;101561.22;4428573;32;20309;-71
2021/08/13 07:21:02;;;;;;;7.85;6.80;;;;;;;20.34;67.59;101354.53;4415030;32;20064;-73
2021/08/13 07:23:28;;;;;;;8.55;6.18;;;;;;;21.99;67.14;101595.13;4419247;32;20656;-73
2021/08/13 07:25:53;;;;;;;8.20;7.25;;;;;;;21.97;67.37;101583.72;4416961;32;20068;-73
2021/08/13 07:28:18;;;;;;;7.25;6.75;;;;;;;22.19;66.53;101581.84;4429318;32;20076;-73
2021/08/13 07:30:44;;;;;;;8.35;6.55;;;;;;;22.24;65.83;101585.84;4425571;32;20095;-73
2021/08/13 07:33:09;;;;;;;7.07;6.57;;;;;;;22.31;65.50;101572.75;4430410;32;20080;-73
2021/08/13 07:35:34;;;;;;;11.55;7.72;;;;;;;22.17;66.50;101584.66;4429946;32;20608;-73
2021/08/13 07:38:00;;;;;;;7.12;6.68;;;;;;;22.53;66.07;101586.91;4428448;32;20138;-72
2021/08/13 07:40:25;;;;;;;9.43;8.48;;;;;;;22.46;65.51;101595.50;4413752;32;20087;-72
2021/08/13 07:42:54;;;;;;;7.50;6.90;;;;;;;22.72;65.00;101596.84;4419023;32;20522;-70
2021/08/13 07:45:20;;;;;;;8.93;8.02;;;;;;;22.85;64.61;101598.28;4416127;32;20095;-74
2021/08/13 07:47:45;;;;;;;8.35;7.68;;;;;;;23.02;64.29;101596.75;4428866;32;20108;-71
2021/08/13 07:50:10;;;;;;;8.02;7.45;;;;;;;23.20;63.75;101596.09;4414725;32;20072;-73
2021/08/13 07:52:36;;;;;;;9.32;8.52;;;;;;;23.02;63.46;101583.38;4414953;32;20072;-73
2021/08/13 07:55:01;;;;;;;8.00;7.45;;;;;;;23.00;63.72;101593.34;4418753;32;20581;-73
2021/08/13 07:57:27;;;;;;;8.52;7.87;;;;;;;23.10;64.01;101601.44;4414824;32;20083;-71
2021/08/13 07:59:53;;;;;;;8.57;7.37;;;;;;;22.92;64.25;101611.09;4428044;32;20073;-70
2021/08/13 08:02:18;;;;;;;8.40;7.70;;;;;;;23.04;63.83;101618.88;4426454;32;20130;-70
2021/08/13 08:04:44;;;;;;;9.23;8.32;;;;;;;23.19;64.20;101627.34;4416668;32;20063;-70
2021/08/13 08:07:10;;;;;;;9.23;8.40;;;;;;;23.46;63.26;101642.75;4431903;32;20106;-69
2021/08/13 08:09:35;;;;;;;9.15;8.38;;;;;;;23.45;63.37;101638.38;4414986;32;20080;-69
2021/08/13 08:12:01;;;;;;;7.47;6.97;;;;;;;23.35;63.10;101653.56;4430793;32;20108;-69
2021/08/13 08:14:26;;;;;;;8.18;7.43;;;;;;;22.94;64.06;101658.16;4413262;32;20072;-69
2021/08/13 08:16:51;;;;;;;8.15;7.55;;;;;;;23.00;64.38;101638.88;4410001;32;20072;-70
2021/08/13 08:19:17;;;;;;;9.90;8.88;;;;;;;23.23;63.60;101641.31;4411833;32;20669;-72
2021/08/13 08:21:43;;;;;;;10.07;8.23;;;;;;;23.03;64.65;101644.00;4428096;32;20141;-73
2021/08/13 08:24:08;;;;;;;9.35;8.35;;;;;;;23.17;64.68;101649.91;4416007;32;20074;-74
2021/08/13 08:26:34;;;;;;;11.10;9.05;;;;;;;23.33;63.99;101657.37;4425752;32;20099;-74
2021/08/13 08:29:00;;;;;;;9.07;7.95;;;;;;;22.29;65.24;101543.50;4428477;32;20129;-73
2021/08/13 08:31:25;;;;;;;8.65;7.90;;;;;;;23.59;63.70;101650.47;4414779;32;20093;-73
2021/08/13 08:33:51;;;;;;;7.78;7.12;;;;;;;23.82;61.46;101663.63;4420686;32;20104;-72
2021/08/13 08:36:16;;;;;;;8.80;7.60;;;;;;;23.82;61.74;101660.94;4410005;32;20075;-69
2021/08/13 08:38:41;;;;;;;7.37;6.90;;;;;;;24.04;61.31;101670.50;4414658;32;20084;-70
2021/08/13 08:41:07;;;;;;;7.47;6.87;;;;;;;23.95;60.63;101679.41;4416059;32;20064;-75
2021/08/13 08:43:33;;;;;;;8.00;7.40;;;;;;;24.19;59.77;101673.56;4409802;32;20072;-72
2021/08/13 08:45:59;;;;;;;9.27;8.57;;;;;;;24.18;59.16;101678.09;4415111;32;20773;-71
2021/08/13 08:48:24;;;;;;;7.12;6.62;;;;;;;23.82;59.65;101679.72;4415618;32;20182;-73
2021/08/13 08:50:50;;;;;;;8.27;7.47;;;;;;;23.47;61.41;101684.63;4416523;32;20092;-73
2021/08/13 08:53:21;;;;;;;8.23;7.47;;;;;;;23.38;60.98;101642.59;4415295;32;20102;-73
2021/08/13 08:55:46;;;;;;;7.55;6.93;;;;;;;23.52;61.11;101696.75;4441067;32;20142;-73
2021/08/13 08:58:12;;;;;;;7.15;6.62;;;;;;;23.42;61.24;101660.09;4419989;32;20954;-72
2021/08/13 09:00:37;;;;;;;7.32;6.82;;;;;;;24.07;61.12;101705.06;4417040;32;20141;-72
2021/08/13 09:03:02;;;;;;;7.40;6.80;;;;;;;24.05;59.25;101696.31;4417071;32;20067;-72
2021/08/13 09:05:28;;;;;;;7.68;6.87;;;;;;;24.21;59.31;101696.56;4430641;32;20122;-73
2021/08/13 09:07:53;;;;;;;7.97;7.20;;;;;;;24.26;58.56;101696.97;4416889;32;20076;-72
2021/08/13 09:10:18;;;;;;;7.78;7.07;;;;;;;24.33;57.58;101691.88;4411898;32;20665;-72
2021/08/13 09:12:44;;;;;;;7.90;7.20;;;;;;;24.56;57.83;101691.56;4429484;32;20160;-72
2021/08/13 09:15:25;;;;;;;6.35;6.05;;;;;;;24.98;55.17;101697.28;4418112;32;20090;-72
2021/08/13 09:18:16;;;;;;;7.80;7.12;;;;;;;24.78;55.59;101693.84;4425110;32;20614;-72
2021/08/13 09:20:49;;;;;;;8.57;7.75;;;;;;;24.62;56.09;101694.50;4421369;32;20076;-72
2021/08/13 09:23:34;;;;;;;;;;;;;;;24.80;55.89;101701.75;4423032;32;20145;-72
2021/08/13 09:26:01;;;;;;;7.35;6.82;;;;;;;25.15;55.68;101703.66;4427198;32;20508;-72
2021/08/13 09:28:43;;;;;;;7.62;7.03;;;;;;;25.33;54.91;101714.47;4418174;32;20076;-71
2021/08/13 09:31:11;;;;;;;6.65;6.15;;;;;;;24.61;54.34;101652.53;4433875;32;20182;-72
2021/08/13 09:33:37;;;;;;;6.87;6.47;;;;;;;24.56;53.82;101675.47;4415879;32;20275;-73
2021/08/13 09:36:02;;;;;;;6.82;6.40;;;;;;;25.23;53.42;101716.38;4415155;32;20115;-70
2021/08/13 09:38:28;;;;;;;6.72;6.22;;;;;;;25.41;52.97;101709.16;4412393;32;20695;-70
2021/08/13 09:40:53;;;;;;;7.25;6.78;;;;;;;25.25;53.23;101712.53;4416519;32;20064;-70
2021/08/13 09:43:19;;;;;;;6.57;6.05;;;;;;;25.39;53.33;101710.34;4414041;32;20182;-72
2021/08/13 09:45:45;;;;;;;6.40;5.97;;;;;;;25.50;52.86;101714.63;4426721;32;20113;-71
2021/08/13 09:48:24;;;;;;;6.78;6.37;;;;;;;25.57;52.14;101708.50;4417853;32;20195;-72
2021/08/13 09:50:49;;;;;;;6.97;6.50;;;;;;;25.70;52.96;101702.75;4428116;32;20546;-70
2021/08/13 09:53:14;;;;;;;18.90;17.83;;;;;;;25.09;51.15;101594.97;4346138;32;20435;-70
2021/08/13 09:55:44;;;;;;;6.62;6.22;;;;;;;26.11;50.71;101705.75;4409184;32;20474;-72
2021/08/13 09:58:10;;;;;;;5.97;5.68;;;;;;;26.10;49.66;101703.22;4439879;32;20336;-72
2021/08/13 10:00:43;;;;;;;6.20;5.90;;;;;;;25.05;49.04;101533.69;4425617;32;20584;-73
2021/08/13 10:03:10;;;;;;;6.43;5.95;;;;;;;26.31;49.32;101694.78;4438228;32;20122;-72
2021/08/13 10:05:35;;;;;;;6.40;5.90;;;;;;;25.93;47.56;101608.12;4425228;32;20568;-74
2021/08/13 10:08:02;;;;;;;10.93;5.82;;;;;;;26.66;47.21;101692.00;4418723;32;20075;-75
2021/08/13 10:10:47;;;;;;;7.47;6.15;;;;;;;26.60;46.67;101702.53;4430903;32;20596;-74
2021/08/13 10:13:12;;;;;;;6.40;6.10;;;;;;;26.35;47.17;101693.47;4427861;32;20063;-75
2021/08/13 10:15:47;;;;;;;5.90;5.60;;;;;;;26.27;44.84;101686.19;4417746;32;20333;-74
2021/08/13 10:18:13;;;;;;;6.20;5.82;;;;;;;25.98;46.66;101667.66;4415550;32;20071;-73
2021/08/13 10:20:44;;;;;;;5.85;5.55;;;;;;;26.05;47.94;101679.50;4431568;32;20083;-74
2021/08/13 10:23:09;;;;;;;5.93;5.55;;;;;;;26.37;47.24;101675.31;4416452;32;20191;-73
2021/08/13 10:25:35;;;;;;;5.75;5.45;;;;;;;26.32;46.97;101664.19;4431731;32;20106;-73
2021/08/13 10:28:01;;;;;;;5.75;5.45;;;;;;;26.65;47.63;101668.75;4430995;32;20068;-73
2021/08/13 10:30:26;;;;;;;7.10;6.70;;;;;;;27.12;47.18;101671.91;4430929;32;20079;-72
2021/08/13 10:32:56;;;;;;;6.25;5.95;;;;;;;27.16;46.01;101665.19;4433732;32;20097;-73
2021/08/13 10:35:23;;;;;;;6.10;5.70;;;;;;;27.02;45.43;101674.75;4421594;32;20087;-73
2021/08/13 10:37:49;;;;;;;6.15;5.65;;;;;;;26.87;45.03;101674.56;4408623;32;20076;-73
2021/08/13 10:40:14;;;;;;;5.55;5.32;;;;;;;26.44;45.94;101590.22;4427800;32;20072;-73
2021/08/13 10:42:42;;;;;;;5.93;5.62;;;;;;;27.21;45.67;101673.63;4431966;32;20391;-73
2021/08/13 10:45:08;;;;;;;6.10;5.80;;;;;;;26.94;45.54;101670.22;4431075;32;20562;-73
2021/08/13 10:47:41;;;;;;;5.97;5.68;;;;;;;26.92;45.76;101666.84;4431241;32;20170;-73
2021/08/13 10:50:07;;;;;;;;;;;;;;;27.25;46.38;101677.72;4432498;32;20075;-71
2021/08/13 10:52:37;;;;;;;5.80;5.50;;;;;;;27.29;44.05;101678.22;4429232;32;19979;-72
2021/08/13 10:55:04;;;;;;;5.70;5.40;;;;;;;27.23;45.52;101650.91;4431813;32;20084;-72
2021/08/13 10:57:47;;;;;;;5.90;5.60;;;;;;;26.93;44.05;101660.44;4430664;32;20576;-73
2021/08/13 11:00:13;;;;;;;6.00;5.70;;;;;;;26.82;45.17;101658.03;4439270;32;20072;-73
2021/08/13 11:02:38;;;;;;;5.80;5.50;;;;;;;27.15;45.35;101677.81;4431518;32;20080;-73
2021/08/13 11:05:04;;;;;;;5.80;5.50;;;;;;;27.41;42.00;101677.72;4423002;32;20072;-73
2021/08/13 11:07:58;;;;;;;5.93;5.62;;;;;;;27.75;43.12;101679.41;4426113;32;20160;-73
2021/08/13 11:10:35;;;;;;;5.90;5.60;;;;;;;28.15;41.84;101688.50;4441585;32;20688;-74
2021/08/13 11:13:19;;;;;;;5.70;5.40;;;;;;;27.96;40.24;101681.63;4442271;32;20076;-73
2021/08/13 11:15:48;;;;;;;5.70;5.40;;;;;;;27.37;43.12;101687.16;4432562;32;20191;-71
2021/08/13 11:18:36;;;;;;;6.85;6.55;;;;;;;27.09;43.99;101685.72;4415482;32;20081;-73
2021/08/13 11:21:06;;;;;;;5.95;5.65;;;;;;;27.24;43.67;101692.19;4436991;32;20067;-71
2021/08/13 11:23:57;;;;;;;5.90;5.60;;;;;;;27.54;43.61;101679.06;4416644;32;20459;-75
2021/08/13 11:26:48;;;;;;;5.82;5.53;;;;;;;28.10;42.97;101681.94;4436816;32;20518;-73